createdAt,value
2024-02-21T00:01:27.923Z,4.79
2024-02-21T00:03:03.366Z,4.78
2024-02-21T00:04:37.850Z,4.80
2024-02-21T00:06:11.335Z,4.78
2024-02-21T00:07:43.949Z,4.79
2024-02-21T00:09:17.183Z,4.72
2024-02-21T00:10:50.631Z,4.68
2024-02-21T00:12:23.096Z,4.56
2024-02-21T00:13:56.509Z,4.40
2024-02-21T00:15:29.108Z,4.45
2024-02-21T00:17:02.689Z,4.31
2024-02-21T00:18:36.178Z,4.42
2024-02-21T00:20:11.991Z,4.42
2024-02-21T00:21:44.306Z,4.38
2024-02-21T00:23:17.707Z,4.38
2024-02-21T00:24:50.120Z,4.34
2024-02-21T00:26:23.308Z,4.32
2024-02-21T00:27:55.497Z,4.28
2024-02-21T00:29:28.932Z,4.17
2024-02-21T00:31:01.249Z,4.20
2024-02-21T00:32:35.710Z,4.16
2024-02-21T00:34:09.102Z,4.07
2024-02-21T00:35:42.995Z,3.95
2024-02-21T00:37:16.544Z,3.97
2024-02-21T00:38:48.758Z,3.95
2024-02-21T00:40:23.475Z,3.95
2024-02-21T00:41:55.867Z,3.95
2024-02-21T00:43:29.364Z,3.94
2024-02-21T00:45:02.629Z,3.89
2024-02-21T00:46:34.969Z,3.93
2024-02-21T00:48:09.021Z,3.89
2024-02-21T00:49:41.954Z,3.89
2024-02-21T00:51:16.641Z,3.86
2024-02-21T00:52:50.037Z,3.84
2024-02-21T00:54:24.102Z,3.82
2024-02-21T00:55:58.155Z,3.69
2024-02-21T00:57:31.354Z,3.58
2024-02-21T00:59:03.960Z,3.43
2024-02-21T01:00:37.554Z,3.31
2024-02-21T01:02:10.053Z,3.17
2024-02-21T01:03:43.449Z,3.14
2024-02-21T01:05:15.728Z,3.03
2024-02-21T01:06:50.867Z,2.86
2024-02-21T01:08:23.190Z,2.75
2024-02-21T01:09:56.458Z,2.66
2024-02-21T01:11:28.928Z,2.57
2024-02-21T01:13:02.436Z,2.55
2024-02-21T01:14:34.811Z,2.51
2024-02-21T01:16:08.549Z,2.48
2024-02-21T01:17:42.042Z,2.46
2024-02-21T01:19:15.566Z,2.43
2024-02-21T01:20:48.110Z,2.43
2024-02-21T01:22:22.724Z,2.45
2024-02-21T01:23:55.905Z,2.37
2024-02-21T01:25:29.236Z,2.47
2024-02-21T01:27:02.663Z,2.54
2024-02-21T01:28:35.060Z,2.60
2024-02-21T01:30:09.637Z,2.64
2024-02-21T01:31:42.002Z,2.55
2024-02-21T01:33:15.494Z,2.68
2024-02-21T01:34:47.826Z,2.74
2024-02-21T01:36:21.088Z,2.81
2024-02-21T01:37:54.830Z,2.87
2024-02-21T01:39:28.278Z,2.95
2024-02-21T01:41:00.892Z,3.01
2024-02-21T01:42:34.176Z,3.05
2024-02-21T01:44:07.706Z,3.10
2024-02-21T01:45:41.377Z,3.15
2024-02-21T01:47:15.873Z,3.20
2024-02-21T01:48:48.189Z,3.25
2024-02-21T01:50:21.826Z,3.30
2024-02-21T01:51:55.775Z,3.33
2024-02-21T01:53:34.518Z,3.29
2024-02-21T01:55:08.592Z,3.31
2024-02-21T01:56:42.483Z,3.35
2024-02-21T01:58:17.221Z,3.33
2024-02-21T01:59:50.154Z,3.28
2024-02-21T02:01:24.453Z,3.22
2024-02-21T02:02:57.754Z,3.20
2024-02-21T02:04:31.772Z,3.15
2024-02-21T02:06:06.093Z,3.14
2024-02-21T02:07:39.332Z,3.14
2024-02-21T02:09:13.257Z,3.16
2024-02-21T02:10:47.013Z,3.14
2024-02-21T02:12:19.765Z,3.19
2024-02-21T02:13:53.074Z,3.22
2024-02-21T02:15:26.144Z,3.24
2024-02-21T02:16:59.394Z,3.27
2024-02-21T02:18:32.757Z,3.25
2024-02-21T02:20:06.457Z,3.29
2024-02-21T02:21:45.296Z,3.28
2024-02-21T02:23:27.500Z,3.31
2024-02-21T02:24:59.863Z,3.28
2024-02-21T02:26:33.193Z,3.31
2024-02-21T02:28:06.134Z,3.35
2024-02-21T02:29:39.370Z,3.35
2024-02-21T02:31:39.785Z,3.36
2024-02-21T02:33:19.254Z,3.36
2024-02-21T02:34:52.658Z,3.39
2024-02-21T02:36:25.198Z,3.37
2024-02-21T02:37:59.156Z,3.32
2024-02-21T02:39:32.763Z,3.39
2024-02-21T02:41:06.323Z,3.37
2024-02-21T02:42:38.536Z,3.41
2024-02-21T02:44:12.331Z,3.44
2024-02-21T02:45:45.572Z,3.48
2024-02-21T02:47:18.032Z,3.52
2024-02-21T02:48:51.345Z,3.39
2024-02-21T02:50:24.338Z,3.47
2024-02-21T02:51:57.568Z,3.45
2024-02-21T02:53:29.848Z,3.37
2024-02-21T02:55:04.828Z,3.36
2024-02-21T02:56:38.430Z,3.35
2024-02-21T02:58:10.600Z,3.36
2024-02-21T02:59:43.831Z,3.36
2024-02-21T03:01:16.314Z,3.36
2024-02-21T03:02:51.848Z,3.35
2024-02-21T03:04:24.183Z,3.33
2024-02-21T03:05:57.720Z,3.28
2024-02-21T03:07:30.017Z,3.24
2024-02-21T03:09:10.071Z,3.23
2024-02-21T03:10:43.990Z,3.23
2024-02-21T03:12:25.217Z,3.21
2024-02-21T03:13:57.978Z,3.18
2024-02-21T03:15:31.935Z,3.17
2024-02-21T03:17:04.533Z,3.16
2024-02-21T03:18:37.974Z,3.13
2024-02-21T03:20:12.306Z,3.11
2024-02-21T03:21:46.782Z,3.10
2024-02-21T03:23:18.982Z,3.11
2024-02-21T03:24:53.916Z,3.14
2024-02-21T03:26:27.779Z,3.15
2024-02-21T03:28:01.440Z,3.15
2024-02-21T03:29:33.678Z,3.15
2024-02-21T03:31:06.918Z,3.13
2024-02-21T03:32:40.578Z,3.12
2024-02-21T03:34:14.648Z,3.12
2024-02-21T03:35:46.941Z,3.11
2024-02-21T03:37:20.339Z,3.12
2024-02-21T03:38:52.742Z,3.12
2024-02-21T03:40:26.174Z,3.14
2024-02-21T03:42:01.786Z,3.14
2024-02-21T03:43:35.127Z,3.16
2024-02-21T03:45:08.667Z,3.17
2024-02-21T03:46:42.207Z,3.20
2024-02-21T03:48:15.573Z,3.23
2024-02-21T03:49:47.813Z,3.25
2024-02-21T03:51:21.201Z,3.21
2024-02-21T03:52:54.778Z,3.20
2024-02-21T03:54:27.173Z,3.25
2024-02-21T03:56:05.031Z,3.23
2024-02-21T03:57:39.852Z,3.24
2024-02-21T03:59:12.257Z,3.12
2024-02-21T04:00:45.547Z,3.18
2024-02-21T04:02:18.747Z,3.08
2024-02-21T04:03:52.241Z,3.11
2024-02-21T04:05:25.560Z,3.07
2024-02-21T04:06:57.786Z,3.06
2024-02-21T04:08:31.023Z,3.07
2024-02-21T04:10:03.629Z,3.04
2024-02-21T04:11:37.063Z,3.11
2024-02-21T04:13:11.018Z,3.11
2024-02-21T04:14:47.298Z,3.11
2024-02-21T04:16:20.166Z,3.10
2024-02-21T04:17:54.574Z,2.93
2024-02-21T04:19:26.999Z,2.94
2024-02-21T04:21:00.600Z,2.96
2024-02-21T04:22:33.548Z,2.94
2024-02-21T04:24:07.650Z,2.91
2024-02-21T04:25:39.993Z,2.86
2024-02-21T04:27:13.269Z,2.73
2024-02-21T04:28:48.352Z,2.72
2024-02-21T04:30:22.085Z,2.70
2024-02-21T04:31:55.367Z,2.69
2024-02-21T04:33:27.699Z,2.67
2024-02-21T04:35:01.359Z,2.63
2024-02-21T04:36:35.405Z,2.63
2024-02-21T04:38:07.805Z,2.64
2024-02-21T04:39:41.060Z,2.64
2024-02-21T04:41:14.398Z,2.64
2024-02-21T04:42:46.857Z,2.67
2024-02-21T04:44:23.603Z,2.67
2024-02-21T04:45:56.264Z,2.65
2024-02-21T04:47:30.010Z,2.64
2024-02-21T04:49:02.407Z,2.67
2024-02-21T04:50:35.919Z,2.60
2024-02-21T04:52:08.168Z,2.58
2024-02-21T04:53:41.493Z,2.63
2024-02-21T04:55:13.986Z,2.64
2024-02-21T04:56:47.840Z,2.66
2024-02-21T04:58:20.847Z,2.66
2024-02-21T04:59:55.584Z,2.66
2024-02-21T05:01:29.632Z,2.66
2024-02-21T05:03:03.193Z,2.59
2024-02-21T05:04:35.646Z,2.66
2024-02-21T05:06:09.274Z,2.64
2024-02-21T05:07:42.938Z,2.65
2024-02-21T05:09:15.670Z,2.71
2024-02-21T05:10:49.161Z,2.74
2024-02-21T05:12:21.494Z,2.78
2024-02-21T05:13:55.136Z,2.84
2024-02-21T05:15:28.806Z,2.88
2024-02-21T05:17:02.135Z,2.76
2024-02-21T05:18:35.754Z,2.88
2024-02-21T05:20:09.147Z,2.94
2024-02-21T05:21:42.457Z,2.96
2024-02-21T05:23:14.677Z,2.99
2024-02-21T05:24:48.081Z,3.00
2024-02-21T05:26:24.794Z,2.99
2024-02-21T05:27:57.204Z,2.98
2024-02-21T05:29:30.584Z,2.93
2024-02-21T05:31:04.589Z,2.87
2024-02-21T05:32:37.887Z,2.84
2024-02-21T05:34:10.168Z,2.83
2024-02-21T05:35:43.689Z,2.81
2024-02-21T05:37:16.754Z,2.81
2024-02-21T05:38:50.093Z,2.84
2024-02-21T05:40:22.348Z,2.83
2024-02-21T05:41:55.559Z,2.82
2024-02-21T05:43:28.906Z,2.85
2024-02-21T05:45:01.258Z,2.88
2024-02-21T05:46:36.364Z,2.88
2024-02-21T05:48:09.989Z,2.87
2024-02-21T05:49:42.364Z,2.87
2024-02-21T05:51:15.877Z,2.88
2024-02-21T05:52:49.576Z,2.87
2024-02-21T05:54:21.840Z,2.90
2024-02-21T05:55:55.089Z,2.83
2024-02-21T05:57:27.559Z,2.90
2024-02-21T05:59:00.936Z,2.92
2024-02-21T06:00:34.385Z,2.94
2024-02-21T06:02:08.160Z,2.96
2024-02-21T06:03:42.079Z,2.92
2024-02-21T06:05:14.717Z,2.96
2024-02-21T06:06:48.131Z,2.99
2024-02-21T06:08:21.548Z,3.07
2024-02-21T06:09:53.844Z,3.12
2024-02-21T06:11:27.112Z,3.23
2024-02-21T06:13:00.396Z,3.32
2024-02-21T06:14:32.966Z,3.38
2024-02-21T06:16:07.874Z,3.40
2024-02-21T06:17:42.809Z,3.48
2024-02-21T06:19:15.201Z,3.54
2024-02-21T06:20:49.225Z,3.49
2024-02-21T06:22:21.495Z,3.61
2024-02-21T06:23:54.810Z,3.61
2024-02-21T06:25:27.034Z,3.55
2024-02-21T06:27:00.398Z,3.66
2024-02-21T06:28:32.846Z,3.69
2024-02-21T06:30:07.184Z,3.73
2024-02-21T06:31:39.617Z,3.82
2024-02-21T06:33:14.528Z,3.86
2024-02-21T06:34:47.908Z,3.87
2024-02-21T06:36:20.410Z,3.98
2024-02-21T06:37:54.152Z,4.03
2024-02-21T06:39:26.681Z,4.12
2024-02-21T06:41:01.732Z,4.08
2024-02-21T06:42:34.287Z,4.29
2024-02-21T06:44:07.557Z,4.37
2024-02-21T06:45:40.455Z,4.38
2024-02-21T06:47:13.946Z,4.34
2024-02-21T06:48:48.196Z,4.43
2024-02-21T06:50:21.606Z,4.43
2024-02-21T06:51:53.918Z,4.48
2024-02-21T06:53:27.251Z,4.52
2024-02-21T06:54:59.927Z,4.63
2024-02-21T06:56:33.113Z,4.72
2024-02-21T06:58:05.431Z,4.80
2024-02-21T06:59:38.738Z,5.06
2024-02-21T07:01:11.842Z,5.60
2024-02-21T07:02:45.139Z,6.08
2024-02-21T07:04:19.795Z,6.53
2024-02-21T07:05:52.153Z,6.95
2024-02-21T07:07:25.518Z,7.30
2024-02-21T07:08:57.725Z,7.62
2024-02-21T07:10:31.278Z,7.86
2024-02-21T07:12:05.252Z,8.16
2024-02-21T07:13:38.639Z,8.40
2024-02-21T07:15:10.922Z,8.53
2024-02-21T07:16:44.355Z,8.82
2024-02-21T07:18:16.626Z,8.91
2024-02-21T07:19:51.349Z,9.22
2024-02-21T07:21:23.490Z,9.23
2024-02-21T07:22:56.907Z,9.17
2024-02-21T07:24:29.317Z,9.03
2024-02-21T07:26:02.835Z,8.87
2024-02-21T07:27:35.168Z,8.72
2024-02-21T07:29:08.443Z,8.65
2024-02-21T07:30:41.770Z,8.75
2024-02-21T07:32:14.549Z,8.77
2024-02-21T07:33:47.877Z,8.98
2024-02-21T07:35:21.753Z,8.97
2024-02-21T07:36:55.179Z,9.15
2024-02-21T07:38:27.708Z,9.22
2024-02-21T07:40:00.928Z,9.27
2024-02-21T07:41:34.963Z,9.31
2024-02-21T07:43:08.283Z,9.64
2024-02-21T07:44:40.781Z,9.83
2024-02-21T07:46:14.042Z,9.81
2024-02-21T07:47:47.341Z,9.83
2024-02-21T07:49:19.781Z,9.81
2024-02-21T07:50:54.628Z,9.57
2024-02-21T07:52:27.983Z,9.12
2024-02-21T07:54:00.232Z,9.22
2024-02-21T07:55:33.722Z,9.34
2024-02-21T07:57:06.121Z,9.45
2024-02-21T07:58:39.537Z,9.26
2024-02-21T08:00:18.611Z,9.49
2024-02-21T08:01:51.974Z,9.89
2024-02-21T08:03:24.472Z,10.29
2024-02-21T08:04:57.926Z,10.42
2024-02-21T08:06:31.719Z,10.62
2024-02-21T08:08:05.833Z,10.81
2024-02-21T08:09:41.663Z,11.09
2024-02-21T08:11:13.960Z,11.37
2024-02-21T08:12:47.170Z,11.33
2024-02-21T08:14:21.053Z,11.44
2024-02-21T08:15:54.720Z,11.74
2024-02-21T08:17:27.049Z,12.10
2024-02-21T08:19:01.107Z,12.44
2024-02-21T08:20:33.402Z,12.79
2024-02-21T08:22:08.274Z,13.06
2024-02-21T08:23:40.569Z,13.19
2024-02-21T08:25:13.848Z,13.18
2024-02-21T08:26:46.236Z,12.96
2024-02-21T08:28:19.638Z,12.96
2024-02-21T08:29:52.237Z,13.19
2024-02-21T08:31:25.916Z,13.62
2024-02-21T08:32:58.334Z,14.02
2024-02-21T08:34:35.437Z,14.35
2024-02-21T08:36:09.703Z,14.77
2024-02-21T08:37:44.982Z,14.96
2024-02-21T08:39:18.023Z,14.87
2024-02-21T08:40:51.688Z,14.67
2024-02-21T08:42:23.917Z,14.64
2024-02-21T08:43:57.488Z,14.41
2024-02-21T08:45:30.821Z,14.68
2024-02-21T08:47:05.429Z,14.82
2024-02-21T08:48:37.861Z,15.14
2024-02-21T08:50:19.599Z,15.31
2024-02-21T08:52:00.657Z,15.56
2024-02-21T08:53:34.558Z,15.84
2024-02-21T08:55:08.857Z,15.96
2024-02-21T08:56:41.040Z,16.02
2024-02-21T08:58:16.376Z,16.10
2024-02-21T08:59:49.338Z,16.43
2024-02-21T09:01:23.545Z,16.55
2024-02-21T09:02:57.302Z,16.58
2024-02-21T09:04:30.933Z,16.72
2024-02-21T09:06:03.666Z,16.59
2024-02-21T09:07:36.999Z,16.61
2024-02-21T09:09:11.412Z,16.68
2024-02-21T09:10:44.952Z,16.73
2024-02-21T09:12:17.456Z,16.89
2024-02-21T09:13:50.915Z,17.02
2024-02-21T09:15:25.574Z,17.17
2024-02-21T09:16:58.965Z,16.99
2024-02-21T09:18:32.437Z,16.73
2024-02-21T09:20:05.588Z,16.53
2024-02-21T09:21:39.031Z,16.05
2024-02-21T09:23:11.474Z,15.79
2024-02-21T09:24:46.551Z,15.37
2024-02-21T09:26:19.024Z,15.32
2024-02-21T09:27:53.232Z,15.30
2024-02-21T09:29:27.631Z,14.94
2024-02-21T09:31:02.014Z,14.53
2024-02-21T09:32:36.590Z,14.42
2024-02-21T09:34:12.387Z,14.11
2024-02-21T09:35:44.979Z,13.99
2024-02-21T09:37:18.517Z,13.72
2024-02-21T09:38:50.916Z,13.51
2024-02-21T09:40:26.115Z,13.37
2024-02-21T09:42:04.342Z,13.39
2024-02-21T09:43:40.338Z,13.20
2024-02-21T09:45:24.769Z,13.01
2024-02-21T09:47:04.548Z,12.98
2024-02-21T09:48:50.899Z,12.99
2024-02-21T09:50:26.296Z,12.95
2024-02-21T09:52:04.062Z,12.96
2024-02-21T09:53:39.290Z,13.05
2024-02-21T09:55:15.208Z,13.20
2024-02-21T09:56:49.055Z,13.41
2024-02-21T09:58:22.949Z,13.53
2024-02-21T10:00:00.338Z,13.64
2024-02-21T10:01:35.179Z,13.77
2024-02-21T10:03:10.853Z,13.95
2024-02-21T10:04:44.608Z,13.97
2024-02-21T10:06:16.911Z,13.82
2024-02-21T10:07:51.738Z,13.79
2024-02-21T10:09:24.837Z,13.76
2024-02-21T10:11:01.307Z,13.81
2024-02-21T10:12:35.147Z,13.84
2024-02-21T10:14:15.598Z,13.84
2024-02-21T10:15:51.109Z,13.75
2024-02-21T10:17:24.442Z,13.53
2024-02-21T10:18:56.810Z,13.51
2024-02-21T10:20:30.300Z,13.60
2024-02-21T10:22:05.627Z,13.49
2024-02-21T10:23:49.390Z,13.52
2024-02-21T10:25:22.327Z,13.44
2024-02-21T10:27:01.830Z,13.40
2024-02-21T10:28:35.478Z,13.49
2024-02-21T10:30:12.717Z,13.58
2024-02-21T10:31:45.097Z,13.63
2024-02-21T10:33:22.167Z,13.70
2024-02-21T10:35:04.184Z,13.86
2024-02-21T10:36:38.132Z,13.87
2024-02-21T10:38:10.577Z,13.65
2024-02-21T10:39:46.144Z,13.66
2024-02-21T10:41:21.240Z,13.65
2024-02-21T10:43:01.346Z,13.46
2024-02-21T10:44:38.699Z,13.36
2024-02-21T10:46:13.389Z,13.50
2024-02-21T10:47:54.773Z,13.48
2024-02-21T10:49:29.772Z,13.43
2024-02-21T10:51:13.134Z,13.44
2024-02-21T10:52:54.043Z,13.28
2024-02-21T10:54:45.305Z,13.34
2024-02-21T10:56:25.236Z,13.47
2024-02-21T10:57:58.869Z,13.46
2024-02-21T10:59:34.393Z,13.56
2024-02-21T11:01:09.554Z,13.58
2024-02-21T11:02:43.816Z,13.58
2024-02-21T11:04:16.485Z,13.50
2024-02-21T11:05:50.752Z,13.47
2024-02-21T11:07:24.673Z,13.46
2024-02-21T11:09:07.224Z,13.49
2024-02-21T11:10:42.425Z,13.67
2024-02-21T11:12:23.190Z,13.71
2024-02-21T11:14:06.529Z,13.82
2024-02-21T11:15:40.339Z,13.87
2024-02-21T11:17:27.413Z,14.02
2024-02-21T11:19:06.488Z,13.98
2024-02-21T11:20:40.511Z,13.75
2024-02-21T11:22:19.578Z,13.84
2024-02-21T11:23:58.934Z,13.86
2024-02-21T11:25:34.776Z,13.71
2024-02-21T11:27:11.377Z,13.72
2024-02-21T11:28:46.039Z,13.71
2024-02-21T11:30:23.796Z,13.59
2024-02-21T11:31:57.861Z,13.69
2024-02-21T11:33:31.799Z,13.71
2024-02-21T11:35:07.976Z,13.72
2024-02-21T11:36:50.891Z,13.63
2024-02-21T11:38:26.487Z,13.60
2024-02-21T11:40:00.720Z,13.48
2024-02-21T11:41:34.556Z,13.53
2024-02-21T11:43:06.741Z,13.61
2024-02-21T11:44:41.074Z,13.71
2024-02-21T11:46:15.274Z,13.69
2024-02-21T11:47:49.135Z,13.60
2024-02-21T11:49:23.036Z,13.49
2024-02-21T11:50:57.262Z,13.32
2024-02-21T11:52:30.557Z,13.37
2024-02-21T11:54:02.957Z,13.36
2024-02-21T11:55:36.845Z,13.35
2024-02-21T11:57:09.978Z,13.27
2024-02-21T11:58:44.085Z,13.25
2024-02-21T12:00:18.161Z,13.20
2024-02-21T12:01:53.199Z,13.14
2024-02-21T12:03:25.958Z,13.18
2024-02-21T12:05:00.889Z,13.21
2024-02-21T12:06:34.410Z,13.17
2024-02-21T12:08:08.691Z,13.20
2024-02-21T12:09:43.367Z,13.21
2024-02-21T12:11:22.690Z,13.25
2024-02-21T12:12:59.880Z,13.30
2024-02-21T12:14:33.834Z,13.29
2024-02-21T12:16:07.412Z,13.24
2024-02-21T12:17:41.831Z,13.00
2024-02-21T12:19:18.351Z,12.91
2024-02-21T12:20:52.234Z,12.97
2024-02-21T12:22:27.357Z,13.01
2024-02-21T12:23:59.881Z,13.05
2024-02-21T12:25:33.209Z,13.02
2024-02-21T12:27:06.709Z,13.10
2024-02-21T12:28:40.095Z,13.09
2024-02-21T12:30:15.853Z,13.10
2024-02-21T12:31:49.426Z,13.11
2024-02-21T12:33:23.592Z,13.11
2024-02-21T12:34:57.140Z,13.14
2024-02-21T12:36:31.030Z,13.12
2024-02-21T12:38:04.729Z,12.94
2024-02-21T12:39:37.853Z,12.83
2024-02-21T12:41:11.159Z,12.71
2024-02-21T12:42:44.077Z,12.35
2024-02-21T12:44:19.546Z,12.39
2024-02-21T12:45:51.860Z,12.35
2024-02-21T12:47:25.991Z,12.23
2024-02-21T12:48:58.549Z,12.18
2024-02-21T12:50:32.673Z,12.10
2024-02-21T12:52:06.902Z,12.15
2024-02-21T12:53:40.816Z,12.16
2024-02-21T12:55:14.770Z,12.11
2024-02-21T12:56:47.963Z,12.11
2024-02-21T12:58:22.709Z,12.12
2024-02-21T12:59:55.201Z,12.19
2024-02-21T13:01:29.280Z,12.15
2024-02-21T13:03:01.900Z,12.21
2024-02-21T13:04:35.234Z,12.23
2024-02-21T13:06:08.010Z,12.28
2024-02-21T13:07:42.692Z,12.36
2024-02-21T13:09:15.112Z,12.47
2024-02-21T13:10:49.733Z,12.58
2024-02-21T13:12:22.697Z,12.73
2024-02-21T13:13:56.098Z,12.86
2024-02-21T13:15:29.250Z,12.94
2024-02-21T13:17:02.781Z,13.07
2024-02-21T13:18:36.796Z,13.23
2024-02-21T13:20:12.195Z,13.32
2024-02-21T13:21:45.963Z,13.40
2024-02-21T13:23:19.727Z,13.42
2024-02-21T13:24:55.508Z,13.45
2024-02-21T13:26:28.746Z,13.47
2024-02-21T13:28:02.987Z,13.30
2024-02-21T13:29:36.032Z,13.37
2024-02-21T13:31:09.456Z,13.30
2024-02-21T13:32:41.697Z,13.32
2024-02-21T13:34:15.137Z,13.33
2024-02-21T13:35:47.529Z,13.32
2024-02-21T13:37:21.046Z,13.32
2024-02-21T13:38:55.932Z,13.30
2024-02-21T13:40:30.031Z,13.23
2024-02-21T13:42:06.695Z,13.32
2024-02-21T13:43:40.755Z,13.34
2024-02-21T13:45:16.050Z,13.37
2024-02-21T13:46:48.438Z,13.38
2024-02-21T13:48:22.010Z,13.42
2024-02-21T13:49:54.393Z,13.34
2024-02-21T13:51:28.079Z,13.19
2024-02-21T13:53:00.836Z,13.05
2024-02-21T13:54:35.648Z,12.96
2024-02-21T13:56:10.496Z,12.90
2024-02-21T13:57:44.086Z,12.92
2024-02-21T13:59:17.511Z,12.94
2024-02-21T14:00:52.101Z,12.89
2024-02-21T14:02:24.446Z,12.94
2024-02-21T14:03:57.773Z,12.88
2024-02-21T14:05:30.155Z,12.93
2024-02-21T14:07:03.435Z,12.93
2024-02-21T14:08:35.612Z,12.85
2024-02-21T14:10:11.837Z,12.91
2024-02-21T14:11:44.398Z,12.81
2024-02-21T14:13:18.814Z,12.84
2024-02-21T14:14:51.472Z,12.75
2024-02-21T14:16:24.871Z,12.61
2024-02-21T14:17:57.490Z,12.50
2024-02-21T14:19:30.988Z,12.44
2024-02-21T14:21:03.270Z,12.46
2024-02-21T14:22:38.872Z,12.45
2024-02-21T14:24:11.636Z,12.51
2024-02-21T14:25:46.485Z,12.49
2024-02-21T14:27:18.797Z,12.42
2024-02-21T14:28:52.211Z,12.54
2024-02-21T14:30:26.654Z,12.58
2024-02-21T14:31:58.968Z,12.62
2024-02-21T14:33:32.878Z,12.66
2024-02-21T14:35:06.737Z,12.65
2024-02-21T14:36:41.831Z,12.62
2024-02-21T14:38:14.306Z,12.59
2024-02-21T14:39:47.737Z,12.49
2024-02-21T14:41:21.416Z,12.48
2024-02-21T14:42:54.776Z,12.29
2024-02-21T14:44:27.141Z,12.33
2024-02-21T14:46:00.681Z,12.10
2024-02-21T14:47:33.195Z,12.02
2024-02-21T14:49:06.674Z,11.92
2024-02-21T14:50:38.842Z,11.73
2024-02-21T14:52:12.285Z,11.64
2024-02-21T14:53:45.488Z,11.53
2024-02-21T14:55:18.035Z,11.44
2024-02-21T14:56:52.961Z,11.35
2024-02-21T14:58:26.417Z,11.33
2024-02-21T15:00:00.541Z,11.27
2024-02-21T15:01:40.604Z,11.19
2024-02-21T15:03:16.462Z,11.19
2024-02-21T15:04:48.981Z,11.17
2024-02-21T15:06:22.250Z,11.12
2024-02-21T15:07:54.655Z,11.02
2024-02-21T15:09:28.771Z,10.88
2024-02-21T15:11:01.481Z,10.93
2024-02-21T15:12:36.303Z,10.90
2024-02-21T15:14:08.928Z,10.83
2024-02-21T15:15:42.333Z,10.79
2024-02-21T15:17:15.046Z,10.75
2024-02-21T15:18:48.405Z,10.74
2024-02-21T15:20:20.868Z,10.70
2024-02-21T15:21:54.553Z,10.68
2024-02-21T15:23:27.054Z,10.62
2024-02-21T15:25:01.146Z,10.54
2024-02-21T15:26:33.355Z,10.55
2024-02-21T15:28:08.437Z,10.49
2024-02-21T15:29:41.139Z,10.47
2024-02-21T15:31:23.924Z,10.45
2024-02-21T15:32:59.608Z,10.41
2024-02-21T15:34:33.641Z,10.41
2024-02-21T15:36:06.977Z,10.44
2024-02-21T15:37:40.544Z,10.42
2024-02-21T15:39:13.494Z,10.39
2024-02-21T15:40:47.054Z,10.40
2024-02-21T15:42:21.209Z,10.40
2024-02-21T15:43:57.898Z,10.40
2024-02-21T15:45:30.187Z,10.36
2024-02-21T15:47:03.826Z,10.40
2024-02-21T15:48:36.285Z,10.32
2024-02-21T15:50:11.544Z,10.37
2024-02-21T15:51:43.907Z,10.33
2024-02-21T15:53:17.391Z,10.31
2024-02-21T15:54:49.892Z,10.30
2024-02-21T15:56:24.451Z,10.30
2024-02-21T15:57:56.896Z,10.30
2024-02-21T15:59:32.845Z,10.29
2024-02-21T16:01:05.668Z,10.28
2024-02-21T16:02:38.909Z,10.30
2024-02-21T16:04:11.282Z,10.27
2024-02-21T16:05:44.628Z,10.26
2024-02-21T16:07:20.073Z,10.26
2024-02-21T16:08:53.625Z,10.13
2024-02-21T16:10:26.050Z,10.23
2024-02-21T16:11:59.632Z,10.21
2024-02-21T16:13:32.077Z,10.19
2024-02-21T16:15:08.583Z,10.16
2024-02-21T16:16:41.575Z,10.16
2024-02-21T16:18:16.115Z,10.14
2024-02-21T16:19:50.490Z,10.11
2024-02-21T16:21:24.483Z,10.12
2024-02-21T16:23:00.603Z,10.13
2024-02-21T16:24:34.342Z,10.12
2024-02-21T16:26:08.075Z,10.10
2024-02-21T16:27:42.695Z,10.08
2024-02-21T16:29:16.291Z,9.95
2024-02-21T16:30:51.358Z,10.09
2024-02-21T16:32:24.769Z,10.01
2024-02-21T16:33:58.366Z,10.04
2024-02-21T16:35:30.794Z,10.09
2024-02-21T16:37:04.359Z,10.10
2024-02-21T16:38:41.275Z,10.07
2024-02-21T16:40:14.974Z,10.08
2024-02-21T16:41:47.244Z,10.06
2024-02-21T16:43:20.488Z,10.07
2024-02-21T16:44:52.861Z,10.07
2024-02-21T16:46:27.765Z,10.07
2024-02-21T16:48:01.230Z,10.09
2024-02-21T16:49:37.156Z,10.10
2024-02-21T16:51:10.304Z,10.11
2024-02-21T16:52:45.758Z,10.11
2024-02-21T16:54:22.374Z,10.10
2024-02-21T16:55:55.962Z,10.08
2024-02-21T16:57:28.340Z,10.07
2024-02-21T16:59:01.821Z,10.04
2024-02-21T17:00:34.281Z,10.00
2024-02-21T17:02:09.227Z,9.94
2024-02-21T17:03:42.671Z,9.84
2024-02-21T17:05:16.933Z,9.84
2024-02-21T17:06:49.880Z,9.80
2024-02-21T17:08:23.389Z,9.67
2024-02-21T17:09:56.746Z,9.58
2024-02-21T17:11:30.302Z,9.52
2024-02-21T17:13:05.596Z,9.47
2024-02-21T17:14:39.864Z,9.33
2024-02-21T17:16:12.962Z,9.14
2024-02-21T17:17:48.143Z,9.13
2024-02-21T17:19:20.779Z,9.08
2024-02-21T17:20:54.204Z,9.01
2024-02-21T17:22:26.635Z,8.95
2024-02-21T17:24:00.421Z,8.91
2024-02-21T17:25:32.990Z,8.79
2024-02-21T17:27:06.790Z,8.77
2024-02-21T17:28:39.549Z,8.71
2024-02-21T17:30:13.608Z,8.66
2024-02-21T17:31:45.859Z,8.59
2024-02-21T17:33:20.784Z,8.44
2024-02-21T17:34:53.240Z,8.30
2024-02-21T17:36:26.567Z,8.18
2024-02-21T17:37:59.326Z,8.02
2024-02-21T17:39:32.696Z,7.98
2024-02-21T17:41:05.397Z,7.98
2024-02-21T17:42:39.102Z,7.94
2024-02-21T17:44:11.638Z,7.97
2024-02-21T17:45:45.339Z,7.95
2024-02-21T17:47:17.695Z,7.93
2024-02-21T17:48:52.442Z,7.90
2024-02-21T17:50:24.930Z,7.89
2024-02-21T17:51:58.699Z,7.81
2024-02-21T17:53:32.175Z,7.88
2024-02-21T17:55:06.590Z,7.87
2024-02-21T17:56:39.991Z,7.76
2024-02-21T17:58:12.335Z,7.86
2024-02-21T17:59:46.608Z,7.85
2024-02-21T18:01:19.458Z,7.84
2024-02-21T18:02:52.969Z,7.76
2024-02-21T18:04:27.105Z,7.87
2024-02-21T18:06:03.024Z,7.87
2024-02-21T18:07:37.716Z,7.88
2024-02-21T18:09:11.492Z,7.92
2024-02-21T18:10:44.085Z,7.76
2024-02-21T18:12:17.489Z,7.95
2024-02-21T18:13:49.913Z,7.95
2024-02-21T18:15:23.457Z,7.91
2024-02-21T18:16:56.332Z,7.94
2024-02-21T18:18:29.853Z,7.95
2024-02-21T18:20:05.063Z,7.87
2024-02-21T18:21:38.548Z,7.93
2024-02-21T18:23:10.862Z,7.94
2024-02-21T18:24:44.944Z,7.93
2024-02-21T18:26:17.201Z,7.96
2024-02-21T18:27:50.622Z,7.94
2024-02-21T18:29:34.714Z,7.97
2024-02-21T18:31:12.561Z,7.98
2024-02-21T18:32:45.724Z,8.00
2024-02-21T18:34:20.364Z,8.01
2024-02-21T18:35:54.175Z,8.02
2024-02-21T18:37:27.651Z,8.02
2024-02-21T18:38:59.878Z,7.98
2024-02-21T18:40:33.229Z,7.90
2024-02-21T18:42:06.312Z,7.97
2024-02-21T18:43:39.793Z,8.03
2024-02-21T18:45:12.261Z,7.99
2024-02-21T18:46:46.017Z,8.04
2024-02-21T18:48:19.325Z,8.06
2024-02-21T18:49:52.285Z,8.01
2024-02-21T18:51:27.730Z,8.03
2024-02-21T18:53:01.565Z,8.04
2024-02-21T18:54:34.978Z,8.05
2024-02-21T18:56:09.710Z,8.04
2024-02-21T18:57:42.297Z,8.03
2024-02-21T18:59:15.606Z,8.00
2024-02-21T19:00:49.213Z,7.99
2024-02-21T19:02:22.054Z,8.02
2024-02-21T19:03:55.275Z,8.02
2024-02-21T19:05:27.870Z,8.01
2024-02-21T19:07:03.162Z,7.98
2024-02-21T19:08:36.689Z,7.92
2024-02-21T19:10:10.606Z,7.88
2024-02-21T19:11:44.028Z,7.92
2024-02-21T19:13:16.328Z,7.91
2024-02-21T19:14:49.731Z,7.85
2024-02-21T19:16:23.224Z,7.86
2024-02-21T19:17:55.562Z,7.85
2024-02-21T19:19:29.053Z,7.84
2024-02-21T19:21:01.513Z,7.83
2024-02-21T19:22:38.366Z,7.79
2024-02-21T19:24:11.008Z,7.73
2024-02-21T19:25:44.547Z,7.68
2024-02-21T19:27:16.949Z,7.64
2024-02-21T19:28:50.301Z,7.64
2024-02-21T19:30:24.477Z,7.60
2024-02-21T19:31:58.168Z,7.60
2024-02-21T19:33:30.589Z,7.57
2024-02-21T19:35:04.159Z,7.54
2024-02-21T19:36:39.557Z,7.54
2024-02-21T19:38:14.671Z,7.54
2024-02-21T19:39:48.028Z,7.47
2024-02-21T19:41:20.522Z,7.44
2024-02-21T19:42:54.463Z,7.47
2024-02-21T19:44:26.865Z,7.46
2024-02-21T19:46:00.192Z,7.46
2024-02-21T19:47:32.566Z,7.40
2024-02-21T19:49:06.330Z,7.40
2024-02-21T19:50:40.021Z,7.39
2024-02-21T19:52:12.370Z,7.30
2024-02-21T19:53:48.849Z,7.36
2024-02-21T19:55:23.770Z,7.36
2024-02-21T19:56:57.545Z,7.36
2024-02-21T19:58:33.362Z,7.35
2024-02-21T20:00:07.936Z,7.35
2024-02-21T20:01:46.029Z,7.33
2024-02-21T20:03:18.427Z,7.34
2024-02-21T20:05:10.637Z,7.36
2024-02-21T20:06:44.833Z,7.27
2024-02-21T20:08:18.867Z,7.33
2024-02-21T20:09:53.801Z,7.36
2024-02-21T20:11:31.140Z,7.28
2024-02-21T20:13:03.807Z,7.35
2024-02-21T20:14:37.455Z,7.33
2024-02-21T20:16:09.612Z,7.30
2024-02-21T20:17:47.408Z,7.31
2024-02-21T20:19:20.025Z,7.35
2024-02-21T20:20:53.917Z,7.35
2024-02-21T20:22:26.262Z,7.35
2024-02-21T20:23:59.935Z,7.32
2024-02-21T20:25:33.613Z,7.35
2024-02-21T20:27:06.903Z,7.35
2024-02-21T20:28:39.236Z,7.34
2024-02-21T20:30:13.500Z,7.34
2024-02-21T20:31:46.795Z,7.30
2024-02-21T20:33:20.153Z,7.29
2024-02-21T20:34:52.762Z,7.26